Time;durP1;ratioP1;P1;durP2;ratioP2;P2;SDS_P1;SDS_P2;PMS_P1;PMS_P2;Temp;Humidity;BMP_temperature;BMP_pressure;BME280_temperature;BME280_humidity;BME280_pressure;Samples;Min_cycle;Max_cycle;Signal;HPM_P1;HPM_P2
2021/07/10 00:02:09;;;;;;;8.52;7.72;;;22.60;67.40;;;;;;5052764;28;20663;-79
2021/07/10 00:04:36;;;;;;;8.75;7.93;;;22.60;67.30;;;;;;5052730;28;20236;-79
2021/07/10 00:07:04;;;;;;;8.25;7.55;;;22.70;67.40;;;;;;5052655;28;20178;-79
2021/07/10 00:09:30;;;;;;;8.30;7.60;;;22.70;67.40;;;;;;5035701;28;20181;-78
2021/07/10 00:12:00;;;;;;;8.35;7.55;;;22.70;67.40;;;;;;5054764;28;20672;-79
2021/07/10 00:14:27;;;;;;;8.85;8.05;;;22.60;67.30;;;;;;5052098;28;20186;-80
2021/07/10 00:16:55;;;;;;;8.00;7.30;;;22.60;67.40;;;;;;5052369;28;20224;-79
2021/07/10 00:19:23;;;;;;;8.82;8.02;;;22.60;67.40;;;;;;5052274;28;20540;-79
2021/07/10 00:21:50;;;;;;;9.07;8.27;;;22.70;67.60;;;;;;5035407;28;20225;-79
2021/07/10 00:24:18;;;;;;;8.45;7.68;;;22.60;67.40;;;;;;5053007;28;20182;-78
2021/07/10 00:26:45;;;;;;;8.90;8.10;;;22.60;67.40;;;;;;5035866;28;20232;-78
2021/07/10 00:29:12;;;;;;;8.48;7.70;;;22.70;67.60;;;;;;5052634;28;20276;-79
2021/07/10 00:31:38;;;;;;;8.40;7.68;;;22.60;67.40;;;;;;5036035;28;20178;-79
2021/07/10 00:34:05;;;;;;;8.75;7.95;;;22.70;67.60;;;;;;5052408;28;20556;-79
2021/07/10 00:36:32;;;;;;;8.25;7.50;;;22.60;67.50;;;;;;5052881;28;20178;-78
2021/07/10 00:38:58;;;;;;;8.15;7.45;;;22.60;67.40;;;;;;5058102;28;20157;-78
2021/07/10 00:41:27;;;;;;;8.73;7.93;;;22.60;67.40;;;;;;5059132;28;20174;-79
2021/07/10 00:43:57;;;;;;;8.40;7.60;;;22.60;67.40;;;;;;5057054;28;20190;-79
2021/07/10 00:46:26;;;;;;;8.77;7.95;;;22.60;67.40;;;;;;5057283;28;20640;-80
2021/07/10 00:48:56;;;;;;;8.98;8.18;;;22.60;67.50;;;;;;5057016;28;20715;-80
2021/07/10 00:51:21;;;;;;;8.70;7.90;;;22.70;67.50;;;;;;5056396;28;20192;-79
2021/07/10 00:53:48;;;;;;;8.45;7.65;;;22.60;67.40;;;;;;5065146;28;20224;-79
2021/07/10 00:56:14;;;;;;;8.32;7.55;;;22.60;67.40;;;;;;5096818;28;20183;-80
2021/07/10 00:58:42;;;;;;;8.32;7.55;;;22.60;67.30;;;;;;5097568;28;20153;-79
2021/07/10 01:01:11;;;;;;;8.80;8.00;;;22.60;67.40;;;;;;5078265;28;20708;-79
2021/07/10 01:03:44;;;;;;;8.52;7.72;;;22.60;67.40;;;;;;5060363;28;20210;-79
2021/07/10 01:06:13;;;;;;;8.68;7.88;;;22.70;67.70;;;;;;5060982;28;20215;-79
2021/07/10 01:08:41;;;;;;;8.73;7.93;;;22.60;67.50;;;;;;5059077;28;20220;-79
2021/07/10 01:11:10;;;;;;;8.35;7.65;;;22.60;67.50;;;;;;5058390;28;20650;-78
2021/07/10 01:13:38;;;;;;;9.32;8.43;;;22.60;67.50;;;;;;5074910;28;20192;-78
2021/07/10 01:16:04;;;;;;;8.77;7.97;;;22.60;67.50;;;;;;5074814;28;20651;-79
2021/07/10 01:18:31;;;;;;;9.30;8.40;;;22.60;67.50;;;;;;5093294;28;20156;-78
2021/07/10 01:20:56;;;;;;;8.40;7.63;;;22.60;67.50;;;;;;5093442;28;20184;-80
2021/07/10 01:23:24;;;;;;;8.75;7.95;;;22.60;67.50;;;;;;5092181;28;20248;-78
2021/07/10 01:25:52;;;;;;;8.50;7.70;;;22.60;67.60;;;;;;5057416;28;20259;-79
2021/07/10 01:28:20;;;;;;;8.50;7.70;;;22.60;67.40;;;;;;5074706;28;20647;-79
2021/07/10 01:30:48;;;;;;;9.55;8.65;;;22.60;67.50;;;;;;5074478;28;20222;-78
2021/07/10 01:33:16;;;;;;;8.93;8.13;;;22.60;67.50;;;;;;5091448;28;20263;-80
2021/07/10 01:35:43;;;;;;;8.55;7.75;;;22.60;67.60;;;;;;5057961;28;20550;-79
2021/07/10 01:38:10;;;;;;;9.13;8.32;;;22.60;67.60;;;;;;5041254;28;20187;-79
2021/07/10 01:40:37;;;;;;;8.57;7.78;;;22.60;67.60;;;;;;5093207;28;20185;-79
2021/07/10 01:43:05;;;;;;;8.90;8.10;;;22.60;67.60;;;;;;5074194;28;20185;-78
2021/07/10 01:45:34;;;;;;;8.75;7.95;;;22.60;67.60;;;;;;5074115;28;20199;-79
2021/07/10 01:48:01;;;;;;;8.93;8.13;;;22.60;67.60;;;;;;5074707;28;20305;-79
2021/07/10 01:50:28;;;;;;;9.18;8.27;;;22.60;67.60;;;;;;5074441;28;20199;-78
2021/07/10 01:52:57;;;;;;;8.75;7.95;;;22.60;67.60;;;;;;5074504;28;20228;-78
2021/07/10 01:55:24;;;;;;;9.00;8.20;;;22.60;67.50;;;;;;5057621;28;20228;-80
2021/07/10 01:57:53;;;;;;;8.38;7.63;;;22.70;67.60;;;;;;5040928;28;20549;-78
2021/07/10 02:00:23;;;;;;;9.38;8.50;;;22.60;67.60;;;;;;5074505;28;20234;-79
2021/07/10 02:02:50;;;;;;;8.80;8.00;;;22.60;67.70;;;;;;5074398;28;20210;-79
2021/07/10 02:05:20;;;;;;;9.07;8.18;;;22.70;67.70;;;;;;5074094;28;20180;-79
2021/07/10 02:07:47;;;;;;;8.40;7.70;;;22.60;67.60;;;;;;5074348;28;20581;-79
2021/07/10 02:10:15;;;;;;;8.65;7.85;;;22.60;67.80;;;;;;5057420;28;20180;-78
2021/07/10 02:12:42;;;;;;;9.00;8.20;;;22.60;67.80;;;;;;5074365;28;20212;-79
2021/07/10 02:15:10;;;;;;;10.35;8.75;;;22.60;67.80;;;;;;5091677;28;20149;-78
2021/07/10 02:17:38;;;;;;;9.00;8.20;;;22.60;67.80;;;;;;5057071;28;20226;-79
2021/07/10 02:20:08;;;;;;;8.88;8.07;;;22.50;67.80;;;;;;5057481;28;20202;-78
2021/07/10 02:22:35;;;;;;;8.73;7.93;;;22.60;67.80;;;;;;5091149;28;20192;-79
2021/07/10 02:25:05;;;;;;;9.52;8.52;;;22.60;67.90;;;;;;5073948;28;20596;-78
2021/07/10 02:27:32;;;;;;;9.13;8.32;;;22.60;67.90;;;;;;5074201;28;20215;-79
2021/07/10 02:30:00;;;;;;;8.55;7.75;;;22.60;67.90;;;;;;5074040;28;20238;-79
2021/07/10 02:32:27;;;;;;;8.65;7.85;;;22.60;67.90;;;;;;5073707;28;20208;-79
2021/07/10 02:34:54;;;;;;;8.75;7.95;;;22.60;67.90;;;;;;5074184;28;20188;-79
2021/07/10 02:37:22;;;;;;;9.05;8.15;;;22.60;67.90;;;;;;5058902;28;20618;-78
2021/07/10 02:39:49;;;;;;;9.27;8.38;;;22.60;67.80;;;;;;5077365;28;20234;-79
2021/07/10 02:42:16;;;;;;;8.88;8.10;;;22.60;67.80;;;;;;5060800;28;20176;-78
2021/07/10 02:44:42;;;;;;;8.68;7.88;;;22.60;67.90;;;;;;5094304;28;20176;-79
2021/07/10 02:47:08;;;;;;;8.77;7.97;;;22.60;67.90;;;;;;5094867;28;20691;-79
2021/07/10 02:49:36;;;;;;;8.88;8.07;;;22.50;67.80;;;;;;5096024;28;20164;-78
2021/07/10 02:52:07;;;;;;;9.43;8.52;;;22.60;67.90;;;;;;5094098;28;20184;-79
2021/07/10 02:54:35;;;;;;;8.90;8.07;;;22.60;67.90;;;;;;5077688;28;20228;-78
2021/07/10 02:57:01;;;;;;;8.55;7.78;;;22.60;67.90;;;;;;5095972;28;20678;-78
2021/07/10 02:59:26;;;;;;;8.25;7.55;;;22.60;68.00;;;;;;5094656;28;20350;-78
2021/07/10 03:01:52;;;;;;;9.25;8.35;;;22.60;68.00;;;;;;5094705;28;20678;-79
2021/07/10 03:04:18;;;;;;;8.93;8.05;;;22.60;68.00;;;;;;5077639;28;20685;-78
2021/07/10 03:06:43;;;;;;;8.90;8.10;;;22.60;68.00;;;;;;5095777;28;20612;-78
2021/07/10 03:09:09;;;;;;;8.70;7.90;;;22.60;68.00;;;;;;5094532;28;20203;-78
2021/07/10 03:11:36;;;;;;;9.25;8.35;;;22.60;68.00;;;;;;5095668;28;20705;-78
2021/07/10 03:14:01;;;;;;;9.43;8.60;;;22.60;68.00;;;;;;5060087;28;20263;-79
2021/07/10 03:16:28;;;;;;;8.80;8.00;;;22.50;67.90;;;;;;5095655;28;20228;-79
2021/07/10 03:18:56;;;;;;;9.02;8.23;;;22.60;68.00;;;;;;5095690;28;20165;-78
2021/07/10 03:21:22;;;;;;;9.43;8.52;;;22.60;68.00;;;;;;5076806;28;20216;-79
2021/07/10 03:23:49;;;;;;;8.65;7.85;;;22.60;68.00;;;;;;5095385;28;20168;-79
2021/07/10 03:26:16;;;;;;;9.38;8.48;;;22.60;67.90;;;;;;5076325;28;20176;-79
2021/07/10 03:28:42;;;;;;;8.70;7.90;;;22.60;67.90;;;;;;5059845;28;20621;-78
2021/07/10 03:31:08;;;;;;;9.23;8.32;;;22.60;67.90;;;;;;5095220;28;20264;-78
2021/07/10 03:33:37;;;;;;;9.02;8.23;;;22.60;68.00;;;;;;5095248;28;20654;-78
2021/07/10 03:36:05;;;;;;;8.90;8.10;;;22.60;68.00;;;;;;5094052;28;20203;-78
2021/07/10 03:38:32;;;;;;;9.23;8.38;;;22.60;68.00;;;;;;5095143;28;20157;-79
2021/07/10 03:41:00;;;;;;;9.18;8.35;;;22.60;68.10;;;;;;5076331;28;20589;-78
2021/07/10 03:43:26;;;;;;;9.63;8.73;;;22.60;68.10;;;;;;5076811;28;20211;-78
2021/07/10 03:45:52;;;;;;;8.55;7.75;;;22.60;68.00;;;;;;5095154;28;20492;-78
2021/07/10 03:48:20;;;;;;;9.07;8.27;;;22.60;68.00;;;;;;5094621;28;20255;-79
2021/07/10 03:50:45;;;;;;;9.07;8.23;;;22.60;68.10;;;;;;5093668;28;20214;-79
2021/07/10 03:53:12;;;;;;;8.90;8.10;;;22.60;68.00;;;;;;5093798;28;20168;-78
2021/07/10 03:55:38;;;;;;;8.88;8.07;;;22.60;68.00;;;;;;5093512;28;20232;-79
2021/07/10 03:58:04;;;;;;;9.45;8.55;;;22.60;68.00;;;;;;5076738;28;20169;-78
2021/07/10 04:00:31;;;;;;;9.23;8.32;;;22.60;68.00;;;;;;5093384;28;20245;-79
2021/07/10 04:02:57;;;;;;;8.65;7.90;;;22.60;68.00;;;;;;5075934;28;20520;-78
2021/07/10 04:05:25;;;;;;;9.60;8.70;;;22.60;67.90;;;;;;5094830;28;20199;-79
2021/07/10 04:07:51;;;;;;;8.75;7.95;;;22.60;68.00;;;;;;5075389;28;20180;-79
2021/07/10 04:10:17;;;;;;;8.65;7.85;;;22.60;68.00;;;;;;5094486;28;20161;-79
2021/07/10 04:12:44;;;;;;;8.65;7.85;;;22.60;68.00;;;;;;5093291;28;20603;-78
2021/07/10 04:15:10;;;;;;;8.80;8.00;;;22.60;67.90;;;;;;5094606;28;20157;-78
2021/07/10 04:17:36;;;;;;;9.00;8.13;;;22.60;68.00;;;;;;5094603;28;20195;-79
2021/07/10 04:20:03;;;;;;;8.85;8.05;;;22.60;67.90;;;;;;5094377;28;20216;-78
2021/07/10 04:22:28;;;;;;;9.10;8.30;;;22.60;68.00;;;;;;5094596;28;20584;-78
2021/07/10 04:24:54;;;;;;;9.15;8.25;;;22.60;68.00;;;;;;5094221;28;20656;-79
2021/07/10 04:27:20;;;;;;;8.65;7.85;;;22.50;67.90;;;;;;5094229;28;20164;-79
2021/07/10 04:29:48;;;;;;;8.95;8.15;;;22.60;68.00;;;;;;5094181;28;20181;-78
2021/07/10 04:32:16;;;;;;;9.15;8.30;;;22.60;67.90;;;;;;5094176;28;20175;-78
2021/07/10 04:34:41;;;;;;;8.95;8.15;;;22.60;68.00;;;;;;5094403;28;20199;-78
2021/07/10 04:37:07;;;;;;;8.73;7.93;;;22.60;67.90;;;;;;5092907;28;20199;-79
2021/07/10 04:39:33;;;;;;;8.85;8.05;;;22.60;67.90;;;;;;5092781;28;20186;-78
2021/07/10 04:41:59;;;;;;;9.20;8.40;;;22.60;67.90;;;;;;5092793;28;20192;-78
2021/07/10 04:44:25;;;;;;;8.88;8.07;;;22.60;67.90;;;;;;5092669;28;20153;-78
2021/07/10 04:46:50;;;;;;;8.75;7.95;;;22.60;67.90;;;;;;5092672;28;20607;-79
2021/07/10 04:49:16;;;;;;;9.27;8.40;;;22.60;67.90;;;;;;5092616;28;20650;-78
2021/07/10 04:51:42;;;;;;;8.93;8.13;;;22.60;68.00;;;;;;5093709;28;20660;-78
2021/07/10 04:54:08;;;;;;;9.18;8.38;;;22.60;68.80;;;;;;5093563;28;20230;-78
2021/07/10 04:56:34;;;;;;;9.02;8.15;;;22.60;68.00;;;;;;5092354;28;20546;-78
2021/07/10 04:59:00;;;;;;;9.05;8.25;;;22.60;68.00;;;;;;5076053;28;20180;-78
2021/07/10 05:01:26;;;;;;;8.98;8.18;;;22.60;68.00;;;;;;5092813;28;20224;-79
2021/07/10 05:03:52;;;;;;;8.15;7.45;;;22.60;68.00;;;;;;5093857;28;20639;-78
2021/07/10 05:06:19;;;;;;;9.10;8.30;;;22.60;68.00;;;;;;5093912;28;20152;-78
2021/07/10 05:08:45;;;;;;;8.63;7.82;;;22.60;68.10;;;;;;5093437;28;20160;-79
2021/07/10 05:11:11;;;;;;;8.80;8.00;;;22.60;68.10;;;;;;5092182;28;20168;-78
2021/07/10 05:13:36;;;;;;;8.70;7.90;;;22.60;68.10;;;;;;5092525;28;20169;-78
2021/07/10 05:16:02;;;;;;;8.98;8.18;;;22.60;68.10;;;;;;5093438;28;20599;-79
2021/07/10 05:18:27;;;;;;;9.10;8.30;;;22.60;68.10;;;;;;5092792;28;20225;-78
2021/07/10 05:20:53;;;;;;;8.75;7.95;;;22.60;68.10;;;;;;5092118;28;20208;-79
2021/07/10 05:23:19;;;;;;;8.50;7.80;;;22.60;68.10;;;;;;5092149;28;20662;-79
2021/07/10 05:25:44;;;;;;;8.63;7.78;;;22.60;68.10;;;;;;5092184;28;20539;-79
2021/07/10 05:28:10;;;;;;;8.82;8.02;;;22.60;68.30;;;;;;5093224;28;20199;-78
2021/07/10 05:30:36;;;;;;;8.95;8.15;;;22.50;68.20;;;;;;5093219;28;20565;-79
2021/07/10 05:33:02;;;;;;;9.18;8.27;;;22.50;68.30;;;;;;5093270;28;20523;-78
2021/07/10 05:35:28;;;;;;;9.10;8.30;;;22.60;68.40;;;;;;5092343;28;20163;-79
2021/07/10 05:37:54;;;;;;;9.32;8.43;;;22.50;68.30;;;;;;5093305;28;20160;-77
2021/07/10 05:40:21;;;;;;;8.85;8.05;;;22.50;68.40;;;;;;5093157;28;20710;-78
2021/07/10 05:42:48;;;;;;;8.65;7.85;;;22.60;68.30;;;;;;5074429;28;20185;-78
2021/07/10 05:45:17;;;;;;;8.63;7.82;;;22.50;68.30;;;;;;5074986;28;20184;-78
2021/07/10 05:47:44;;;;;;;8.63;7.82;;;22.60;68.40;;;;;;5074436;28;20290;-78
2021/07/10 05:50:10;;;;;;;8.82;8.02;;;22.60;68.40;;;;;;5074400;28;20192;-78
2021/07/10 05:52:36;;;;;;;8.75;7.95;;;22.60;68.30;;;;;;5093126;28;20526;-78
2021/07/10 05:55:02;;;;;;;8.80;8.00;;;22.50;68.30;;;;;;5091521;28;20213;-78
2021/07/10 05:57:28;;;;;;;9.05;8.20;;;22.60;68.20;;;;;;5091896;28;20149;-78
2021/07/10 05:59:54;;;;;;;8.95;8.15;;;22.60;68.30;;;;;;5093181;28;20259;-79
2021/07/10 06:02:20;;;;;;;9.00;8.20;;;22.50;68.30;;;;;;5092978;28;20554;-79
2021/07/10 06:04:45;;;;;;;9.55;8.65;;;22.60;68.30;;;;;;5092102;28;20157;-79
2021/07/10 06:07:11;;;;;;;9.48;8.60;;;22.60;68.20;;;;;;5093186;28;20165;-78
2021/07/10 06:09:36;;;;;;;8.70;7.90;;;22.60;68.10;;;;;;5092909;28;20500;-78
2021/07/10 06:12:04;;;;;;;8.95;8.07;;;22.70;68.00;;;;;;5094278;28;20206;-78
2021/07/10 06:14:29;;;;;;;8.73;7.97;;;22.60;68.80;;;;;;5096630;28;20157;-78
2021/07/10 06:16:55;;;;;;;9.20;8.32;;;22.70;68.00;;;;;;5095576;28;20149;-79
2021/07/10 06:19:22;;;;;;;8.95;8.15;;;22.60;67.80;;;;;;5095743;28;20256;-79
2021/07/10 06:21:49;;;;;;;9.07;8.27;;;22.70;67.80;;;;;;5077561;28;20219;-79
2021/07/10 06:24:16;;;;;;;8.82;8.02;;;22.70;67.80;;;;;;5077723;28;20180;-79
2021/07/10 06:26:43;;;;;;;8.43;7.72;;;22.70;67.80;;;;;;5060634;28;20251;-78
2021/07/10 06:29:10;;;;;;;9.25;8.35;;;22.70;67.80;;;;;;5077714;28;20179;-78
2021/07/10 06:31:35;;;;;;;8.73;7.90;;;22.70;67.70;;;;;;5077713;28;20241;-78
2021/07/10 06:34:03;;;;;;;8.50;7.70;;;22.70;67.70;;;;;;5096545;28;20157;-78
2021/07/10 06:36:28;;;;;;;8.02;7.32;;;22.70;67.70;;;;;;5096544;28;20657;-79
2021/07/10 06:38:54;;;;;;;8.48;7.70;;;22.70;67.60;;;;;;5096385;28;20157;-79
2021/07/10 06:41:20;;;;;;;8.32;7.57;;;22.80;67.70;;;;;;5078040;28;20253;-79
2021/07/10 06:43:46;;;;;;;9.00;8.20;;;22.80;67.60;;;;;;5096528;28;20152;-79
2021/07/10 06:46:13;;;;;;;9.30;8.40;;;22.80;67.70;;;;;;5096102;28;20164;-78
2021/07/10 06:48:39;;;;;;;8.32;7.55;;;22.80;67.70;;;;;;5077406;28;20639;-78
2021/07/10 06:51:06;;;;;;;8.95;8.05;;;22.80;67.60;;;;;;5077287;28;20210;-79
2021/07/10 06:53:33;;;;;;;9.05;8.25;;;22.80;67.60;;;;;;5077298;28;20254;-78
2021/07/10 06:56:00;;;;;;;8.77;7.97;;;22.80;67.60;;;;;;5076941;28;20224;-78
2021/07/10 06:58:27;;;;;;;8.95;8.13;;;22.80;67.60;;;;;;5077230;28;20184;-79
2021/07/10 07:00:53;;;;;;;9.32;8.43;;;22.80;68.40;;;;;;5076926;28;20223;-79
2021/07/10 07:03:20;;;;;;;9.02;8.23;;;22.80;67.70;;;;;;5095856;28;20157;-79
2021/07/10 07:05:46;;;;;;;8.82;8.02;;;22.80;67.70;;;;;;5094517;28;20171;-78
2021/07/10 07:08:12;;;;;;;9.05;8.25;;;22.80;67.70;;;;;;5095791;28;20177;-78
2021/07/10 07:10:38;;;;;;;9.45;8.55;;;22.80;67.80;;;;;;5094751;28;20649;-79
2021/07/10 07:13:04;;;;;;;8.82;8.02;;;22.80;67.90;;;;;;5095640;28;20145;-79
2021/07/10 07:15:29;;;;;;;9.00;8.10;;;22.80;67.90;;;;;;5077375;28;20157;-80
2021/07/10 07:17:55;;;;;;;9.20;8.30;;;22.80;67.80;;;;;;5094413;28;20192;-78
2021/07/10 07:20:21;;;;;;;8.30;7.60;;;22.80;67.90;;;;;;5095373;28;20199;-77
2021/07/10 07:22:47;;;;;;;8.85;8.02;;;22.80;67.80;;;;;;5095134;28;20675;-78
2021/07/10 07:25:14;;;;;;;9.35;8.45;;;22.80;67.80;;;;;;5094654;28;20192;-78
2021/07/10 07:27:40;;;;;;;9.00;8.20;;;22.80;67.80;;;;;;5094221;28;20639;-78
2021/07/10 07:30:06;;;;;;;9.07;8.15;;;22.80;68.00;;;;;;5094324;28;20157;-78
2021/07/10 07:32:32;;;;;;;9.57;8.68;;;22.80;68.00;;;;;;5094087;28;20187;-79
2021/07/10 07:34:58;;;;;;;8.85;8.05;;;22.80;68.00;;;;;;5093986;28;20189;-78
2021/07/10 07:37:23;;;;;;;9.20;8.30;;;22.80;68.00;;;;;;5095121;28;20236;-78
2021/07/10 07:39:49;;;;;;;9.50;8.60;;;22.80;68.00;;;;;;5093929;28;20608;-79
2021/07/10 07:42:16;;;;;;;9.90;8.90;;;22.70;68.10;;;;;;5095030;28;20633;-78
2021/07/10 07:44:42;;;;;;;9.05;8.25;;;22.70;68.20;;;;;;5095217;28;20176;-77
2021/07/10 07:47:09;;;;;;;9.25;8.35;;;22.70;68.20;;;;;;5095010;28;20184;-78
2021/07/10 07:49:35;;;;;;;9.45;8.55;;;22.80;68.20;;;;;;5095009;28;20160;-78
2021/07/10 07:52:02;;;;;;;9.63;8.73;;;22.80;68.20;;;;;;5095023;28;20199;-79
2021/07/10 07:54:27;;;;;;;9.35;8.45;;;22.80;68.30;;;;;;5093673;28;20216;-79
2021/07/10 07:56:53;;;;;;;9.48;8.57;;;22.80;68.20;;;;;;5094753;28;20168;-78
2021/07/10 07:59:20;;;;;;;9.52;8.63;;;22.80;68.20;;;;;;5093533;28;20172;-78
2021/07/10 08:01:45;;;;;;;9.20;8.40;;;22.80;68.10;;;;;;5093516;28;20551;-78
2021/07/10 08:04:11;;;;;;;9.68;8.77;;;22.80;68.10;;;;;;5093426;28;20152;-79
2021/07/10 08:06:37;;;;;;;10.10;9.20;;;22.80;68.10;;;;;;5093308;28;20620;-78
2021/07/10 08:09:04;;;;;;;9.27;8.48;;;22.80;68.00;;;;;;5094604;28;20156;-78
2021/07/10 08:11:30;;;;;;;9.68;8.77;;;22.80;68.10;;;;;;5094563;28;20252;-78
2021/07/10 08:13:57;;;;;;;9.73;8.73;;;22.80;68.10;;;;;;5094530;28;20232;-78
2021/07/10 08:16:25;;;;;;;9.48;8.57;;;22.80;68.20;;;;;;5093125;28;20239;-79
2021/07/10 08:18:52;;;;;;;9.48;8.60;;;22.80;68.20;;;;;;5093208;28;20157;-79
2021/07/10 08:21:18;;;;;;;9.95;8.95;;;22.90;68.10;;;;;;5095017;28;20524;-78
2021/07/10 08:23:44;;;;;;;9.38;8.48;;;22.90;68.10;;;;;;5094226;28;20161;-79
2021/07/10 08:26:10;;;;;;;9.95;9.05;;;22.90;68.00;;;;;;5094259;28;20670;-79
2021/07/10 08:28:36;;;;;;;9.73;8.82;;;22.90;68.10;;;;;;5094424;28;20210;-78
2021/07/10 08:31:02;;;;;;;9.32;8.45;;;22.90;68.00;;;;;;5094074;28;20148;-78
2021/07/10 08:33:28;;;;;;;9.77;8.88;;;22.90;67.80;;;;;;5094200;28;20153;-78
2021/07/10 08:35:54;;;;;;;8.77;7.97;;;23.00;68.10;;;;;;5094112;28;20671;-79
2021/07/10 08:38:19;;;;;;;9.63;8.73;;;22.90;68.00;;;;;;5094389;28;20172;-77
2021/07/10 08:40:45;;;;;;;10.13;9.23;;;23.00;67.80;;;;;;5094086;28;20192;-79
2021/07/10 08:43:12;;;;;;;9.35;8.45;;;23.00;67.70;;;;;;5093924;28;20164;-79
2021/07/10 08:45:38;;;;;;;9.52;8.63;;;23.00;67.60;;;;;;5093030;28;20151;-79
2021/07/10 08:48:04;;;;;;;9.57;8.65;;;23.10;67.40;;;;;;5093038;28;20180;-79
2021/07/10 08:50:30;;;;;;;9.55;8.65;;;23.10;67.40;;;;;;5092666;28;20202;-78
2021/07/10 08:52:59;;;;;;;10.00;9.10;;;23.10;67.50;;;;;;5094082;28;20165;-78
2021/07/10 08:55:28;;;;;;;9.15;8.35;;;23.10;67.50;;;;;;5074971;28;20698;-79
2021/07/10 08:57:56;;;;;;;10.23;9.23;;;23.00;67.40;;;;;;5091825;28;20559;-78
2021/07/10 09:00:27;;;;;;;9.25;8.45;;;23.00;67.60;;;;;;5074736;28;20291;-78
2021/07/10 09:02:56;;;;;;;10.07;9.07;;;23.00;67.70;;;;;;5093660;28;20160;-78
2021/07/10 09:05:23;;;;;;;9.40;8.50;;;23.00;67.70;;;;;;5092282;28;20212;-78
2021/07/10 09:08:19;;;;;;;10.25;9.35;;;23.00;68.50;;;;;;5058942;28;20187;-78
2021/07/10 09:11:01;;;;;;;9.77;8.88;;;23.00;67.70;;;;;;5108395;28;20255;-79
2021/07/10 09:13:47;;;;;;;9.82;8.93;;;23.00;67.70;;;;;;5092547;28;20685;-78
2021/07/10 09:16:16;;;;;;;10.20;9.18;;;23.00;68.00;;;;;;5092294;28;20153;-78
2021/07/10 09:18:54;;;;;;;9.70;8.80;;;22.90;68.50;;;;;;5093483;28;20228;-78
2021/07/10 09:21:39;;;;;;;10.13;9.13;;;23.00;67.90;;;;;;5093474;28;20188;-78
2021/07/10 09:24:21;;;;;;;9.88;8.98;;;23.00;68.00;;;;;;5093586;28;20203;-79
2021/07/10 09:26:51;;;;;;;9.63;8.75;;;23.00;68.10;;;;;;5076556;28;20180;-78
2021/07/10 09:29:21;;;;;;;10.23;9.23;;;23.00;67.80;;;;;;5074745;28;20188;-79
2021/07/10 09:31:58;;;;;;;9.70;8.80;;;23.10;67.60;;;;;;5092260;28;20203;-78
2021/07/10 09:34:29;;;;;;;9.70;8.80;;;23.10;67.70;;;;;;5093821;28;20172;-77
2021/07/10 09:37:02;;;;;;;10.38;9.30;;;23.10;67.40;;;;;;5092051;28;20181;-78
2021/07/10 09:39:30;;;;;;;9.35;8.45;;;23.10;67.60;;;;;;5075162;28;20314;-78
2021/07/10 09:41:58;;;;;;;9.85;8.98;;;23.10;67.60;;;;;;5091982;28;20176;-78
2021/07/10 09:44:41;;;;;;;9.85;8.95;;;23.10;67.70;;;;;;5091392;28;20184;-78
2021/07/10 09:47:11;;;;;;;9.43;8.52;;;23.10;67.70;;;;;;5063793;28;20191;-78
2021/07/10 09:49:39;;;;;;;9.73;8.82;;;23.10;67.80;;;;;;5096383;28;20164;-79
2021/07/10 09:52:13;;;;;;;10.40;9.40;;;23.00;67.90;;;;;;5061803;28;20538;-77
2021/07/10 09:54:47;;;;;;;10.52;9.45;;;23.00;67.80;;;;;;5078583;28;20573;-79
2021/07/10 09:57:20;;;;;;;10.18;9.18;;;23.10;67.80;;;;;;5097466;28;20231;-79
2021/07/10 09:59:51;;;;;;;10.40;9.40;;;23.10;67.80;;;;;;5079116;28;20184;-79
2021/07/10 10:02:26;;;;;;;10.13;9.13;;;23.10;67.60;;;;;;5078643;28;20232;-79
2021/07/10 10:05:00;;;;;;;9.75;8.85;;;23.10;67.60;;;;;;5079547;28;20506;-79
2021/07/10 10:07:27;;;;;;;10.32;9.27;;;23.10;67.70;;;;;;5063247;28;20184;-79
2021/07/10 10:09:57;;;;;;;9.52;8.63;;;23.10;67.80;;;;;;5078186;28;20181;-78
2021/07/10 10:12:25;;;;;;;10.20;9.20;;;23.10;67.80;;;;;;5078195;28;20180;-77
2021/07/10 10:14:56;;;;;;;9.90;8.90;;;23.10;67.80;;;;;;5061334;28;20180;-78
2021/07/10 10:17:25;;;;;;;10.30;9.30;;;23.10;68.00;;;;;;5078367;28;20185;-78
2021/07/10 10:19:53;;;;;;;10.20;9.20;;;23.10;67.90;;;;;;5078670;28;20577;-78
2021/07/10 10:22:20;;;;;;;10.10;9.10;;;23.10;67.90;;;;;;5077810;28;20662;-79
2021/07/10 10:24:50;;;;;;;9.88;8.88;;;23.10;68.00;;;;;;5077719;28;20242;-77
2021/07/10 10:27:18;;;;;;;10.23;9.32;;;23.00;68.10;;;;;;5078214;28;20276;-79
2021/07/10 10:29:45;;;;;;;10.30;9.30;;;23.00;68.20;;;;;;5094695;28;20180;-78
2021/07/10 10:32:15;;;;;;;10.63;9.43;;;23.00;68.20;;;;;;5061163;28;20192;-77
2021/07/10 10:34:42;;;;;;;9.88;8.98;;;23.00;68.20;;;;;;5077781;28;20181;-78
2021/07/10 10:37:10;;;;;;;10.25;9.25;;;23.10;68.00;;;;;;5077594;28;20179;-78
2021/07/10 10:39:37;;;;;;;9.75;8.75;;;23.10;67.90;;;;;;5077385;28;20234;-79
2021/07/10 10:42:09;;;;;;;10.30;9.20;;;23.10;67.70;;;;;;5077235;28;20219;-79
2021/07/10 10:44:39;;;;;;;9.82;8.90;;;23.20;67.70;;;;;;5094746;27;20177;-78
2021/07/10 10:47:08;;;;;;;10.15;9.15;;;23.20;67.70;;;;;;5094661;27;20605;-79
2021/07/10 10:49:49;;;;;;;10.02;9.07;;;23.10;67.70;;;;;;5077563;28;20184;-79
2021/07/10 10:52:33;;;;;;;10.07;9.13;;;23.10;67.70;;;;;;5097240;27;20716;-79
2021/07/10 10:55:06;;;;;;;10.38;9.38;;;23.20;67.80;;;;;;5077187;28;20667;-78
2021/07/10 10:57:52;;;;;;;10.57;9.52;;;23.10;67.70;;;;;;5094094;28;20654;-78
2021/07/10 11:00:33;;;;;;;10.45;9.45;;;23.20;67.60;;;;;;5079881;28;20706;-79
2021/07/10 11:03:19;;;;;;;10.18;9.27;;;23.20;67.60;;;;;;5094811;28;20272;-79
2021/07/10 11:05:49;;;;;;;10.68;9.57;;;23.20;67.70;;;;;;5077743;28;20547;-79
2021/07/10 11:08:26;;;;;;;9.57;8.68;;;23.10;67.60;;;;;;5077179;28;20188;-78
2021/07/10 11:11:16;;;;;;;10.10;9.10;;;23.20;67.60;;;;;;5077170;28;20184;-79
2021/07/10 11:14:02;;;;;;;10.45;9.38;;;23.20;67.60;;;;;;5094777;28;20630;-79
2021/07/10 11:16:28;;;;;;;9.82;8.93;;;23.20;67.70;;;;;;5065559;28;20666;-78
2021/07/10 11:19:00;;;;;;;10.55;9.18;;;23.20;67.60;;;;;;5094387;28;20153;-79
2021/07/10 11:21:44;;;;;;;10.40;9.32;;;23.20;67.60;;;;;;5060419;28;20251;-78
2021/07/10 11:24:24;;;;;;;10.23;9.23;;;23.20;67.60;;;;;;5094553;28;20184;-79
2021/07/10 11:27:28;;;;;;;10.30;9.32;;;23.20;67.60;;;;;;5093100;28;20223;-78
2021/07/10 11:30:15;;;;;;;10.85;9.75;;;23.30;67.70;;;;;;5094509;28;20662;-79
2021/07/10 11:32:43;;;;;;;10.43;9.43;;;23.20;67.50;;;;;;5128187;27;20198;-79
2021/07/10 11:35:10;;;;;;;10.82;9.73;;;23.20;67.60;;;;;;5094402;28;20167;-78
2021/07/10 11:37:44;;;;;;;10.52;9.52;;;23.20;67.60;;;;;;5076524;28;20184;-78
2021/07/10 11:40:11;;;;;;;10.90;9.80;;;23.20;67.90;;;;;;5076193;28;20180;-77
2021/07/10 11:42:42;;;;;;;10.13;9.15;;;23.20;67.80;;;;;;5094148;28;20197;-79
2021/07/10 11:45:15;;;;;;;10.25;9.25;;;23.20;67.80;;;;;;5095282;28;20153;-78
2021/07/10 11:47:43;;;;;;;10.05;9.15;;;23.20;67.80;;;;;;5093933;28;20256;-78
2021/07/10 11:50:19;;;;;;;10.32;9.32;;;23.20;68.50;;;;;;5095110;28;20157;-79
2021/07/10 11:52:59;;;;;;;10.52;9.52;;;23.20;67.70;;;;;;5094063;28;20160;-77
2021/07/10 11:55:26;;;;;;;10.57;9.57;;;23.20;67.80;;;;;;5094649;28;20223;-79
2021/07/10 11:57:53;;;;;;;10.18;9.18;;;23.20;67.80;;;;;;5093624;28;20167;-79
2021/07/10 12:00:20;;;;;;;10.05;9.15;;;23.30;67.70;;;;;;5095050;28;20207;-78
2021/07/10 12:02:47;;;;;;;11.10;10.00;;;23.20;67.60;;;;;;5094936;28;20665;-79
2021/07/10 12:05:23;;;;;;;10.43;9.43;;;23.30;67.60;;;;;;5093472;28;20605;-79
2021/07/10 12:07:58;;;;;;;10.95;9.85;;;23.20;67.60;;;;;;5095026;28;20160;-77
2021/07/10 12:10:27;;;;;;;10.85;9.80;;;23.30;67.50;;;;;;5094078;28;20680;-78
2021/07/10 12:12:55;;;;;;;10.40;9.40;;;23.30;67.50;;;;;;5094562;28;20519;-78
2021/07/10 12:15:25;;;;;;;10.63;9.52;;;23.20;67.50;;;;;;5094659;28;20160;-80
2021/07/10 12:17:52;;;;;;;11.07;9.98;;;23.30;67.60;;;;;;5094470;28;20180;-78
2021/07/10 12:20:23;;;;;;;10.30;9.30;;;23.20;67.70;;;;;;5094313;28;20226;-78
2021/07/10 12:22:50;;;;;;;10.30;9.30;;;23.30;67.50;;;;;;5094685;28;20167;-78
2021/07/10 12:25:17;;;;;;;11.18;10.07;;;23.30;67.50;;;;;;5094545;28;20156;-79
2021/07/10 12:27:42;;;;;;;10.85;9.85;;;23.30;68.40;;;;;;5094269;28;20175;-78
2021/07/10 12:30:09;;;;;;;11.02;10.02;;;23.30;67.50;;;;;;5094518;28;20515;-77
2021/07/10 12:32:35;;;;;;;10.63;9.57;;;23.30;67.60;;;;;;5094239;28;20152;-79
2021/07/10 12:35:01;;;;;;;10.88;9.82;;;23.20;67.60;;;;;;5094184;28;20171;-79
2021/07/10 12:37:28;;;;;;;11.00;9.90;;;23.30;67.70;;;;;;5094359;28;20487;-79
2021/07/10 12:40:10;;;;;;;10.38;9.38;;;23.20;67.80;;;;;;5094329;28;20145;-77
2021/07/10 12:42:37;;;;;;;11.35;10.25;;;23.20;67.70;;;;;;5094095;28;20161;-78
2021/07/10 12:45:07;;;;;;;10.73;9.63;;;23.30;67.70;;;;;;5093036;28;20252;-78
2021/07/10 12:47:33;;;;;;;10.40;9.40;;;23.30;67.50;;;;;;5093911;28;20149;-78
2021/07/10 12:49:59;;;;;;;10.95;9.95;;;23.30;67.40;;;;;;5093887;28;20206;-78